M I D A S
Marine Information and Data Acquisition System
Tripno 1713 of the Zeeleeuw from 2009-06-22 07:20:52 to 2009-06-22 15:14:20
Back to CruiseResearch ActivitiesStationsMapUnderway DataData graphs

EquipmentUnitsComment
TimeDGPSUTC
LatitudeDGPSDM.mWGS84
LongitudeDGPSDM.mWGS84
HeadingGyrodeg 
SOGDGPSknotsSpeed over ground
COGDGPSdegCourse over ground
DepthEcho soundermeters200 kHz
Missing or incorrect values are displayed as -999
Navigation data collected by the RV Zeeleeuw from 2009-06-22 06:43:57 to 2009-06-22 15:30:18
Time Latitude Longitude Heading SOG COG Depth
2009-06-22 06:45:02 51°13.663 2°55.96 127.3 -999 334 -999
2009-06-22 06:46:02 51°13.662 2°55.96 127.3 -999 207 -999
2009-06-22 06:47:02 51°13.662 2°55.96 127 -999 95 -999
2009-06-22 06:48:02 51°13.662 2°55.96 127.1 -999 214 -999
2009-06-22 06:49:02 51°13.662 2°55.959 126.4 -999 200 -999
2009-06-22 06:50:02 51°13.663 2°55.96 126.4 -999 138 -999
2009-06-22 06:51:02 51°13.663 2°55.96 126.3 -999 231 -999
2009-06-22 06:52:02 51°13.663 2°55.96 126.4 -999 309 -999
2009-06-22 06:53:02 51°13.663 2°55.96 127.1 -999 38 -999
2009-06-22 06:54:01 51°13.663 2°55.961 126.3 -999 285 4.8
2009-06-22 06:55:02 51°13.662 2°55.959 126.3 0.1 234 4.8
2009-06-22 06:56:01 51°13.662 2°55.96 126.3 0.1 227 4.8
2009-06-22 06:57:02 51°13.662 2°55.96 126.6 -999 220 -999
2009-06-22 06:58:01 51°13.663 2°55.961 126.5 -999 155 -999
2009-06-22 06:59:01 51°13.663 2°55.961 126.7 -999 284 4.9
2009-06-22 07:00:02 51°13.663 2°55.961 126.8 -999 345 -999
2009-06-22 07:01:01 51°13.662 2°55.96 126.4 0.1 218 -999
2009-06-22 07:02:01 51°13.664 2°55.96 126.6 0.1 39 4.9
2009-06-22 07:03:01 51°13.663 2°55.96 126.4 -999 189 4.9
2009-06-22 07:04:02 51°13.663 2°55.96 128.1 -999 192 -999
2009-06-22 07:05:01 51°13.663 2°55.96 128.2 -999 214 5
2009-06-22 07:06:01 51°13.663 2°55.96 125.8 -999 203 -999
2009-06-22 07:07:02 51°13.662 2°55.96 121.5 0.1 51 5.1
2009-06-22 07:08:02 51°13.662 2°55.959 113.2 0.1 279 -999
2009-06-22 07:09:02 51°13.678 2°55.905 115.7 4 296 -999
2009-06-22 07:10:00 51°13.694 2°55.829 98.1 2.9 281 7.8
2009-06-22 07:11:01 51°13.692 2°55.755 72.8 1.9 256 -999
2009-06-22 07:11:59 51°13.703 2°55.754 19.4 1.1 6 12
2009-06-22 07:13:01 51°13.704 2°55.747 337.2 1.7 325 -999
2009-06-22 07:13:59 51°13.753 2°55.697 330.3 5.2 327 9.7
2009-06-22 07:14:58 51°13.833 2°55.63 340.4 4.9 340 9.6
2009-06-22 07:15:58 51°13.896 2°55.635 19.3 3.2 14 9
2009-06-22 07:16:58 51°13.934 2°55.638 349.9 1.4 352 9.3
2009-06-22 07:17:58 51°13.945 2°55.632 328.8 0.1 334 10.3
2009-06-22 07:18:58 51°13.959 2°55.614 326.4 2.6 322 10.3
2009-06-22 07:19:58 51°14.025 2°55.541 326.6 6.7 324 9.9
2009-06-22 07:20:58 51°14.136 2°55.419 328.5 8.9 326 9.6
2009-06-22 07:21:58 51°14.251 2°55.266 318.1 9.1 315 9.7
2009-06-22 07:22:58 51°14.351 2°55.075 307.9 9.6 306 9.6
2009-06-22 07:23:58 51°14.405 2°54.817 280.5 11.5 273 9.3
2009-06-22 07:24:58 51°14.372 2°54.501 265.9 12.3 261 8.7
2009-06-22 07:25:58 51°14.31 2°54.184 251.1 12.8 247 8.5
2009-06-22 07:26:58 51°14.22 2°53.877 247.1 12.9 243 8.5
2009-06-22 07:27:58 51°14.127 2°53.571 247.3 12.8 244 8.7
2009-06-22 07:28:58 51°14.037 2°53.268 245.4 12.7 243 9.1
2009-06-22 07:29:58 51°13.938 2°52.967 242.5 12.8 240 9.4
2009-06-22 07:30:58 51°13.829 2°52.674 240.8 12.8 237 9.4
2009-06-22 07:31:58 51°13.716 2°52.385 241.2 12.8 239 9.7
2009-06-22 07:32:58 51°13.614 2°52.085 244.4 12.8 241 9.8
2009-06-22 07:33:58 51°13.511 2°51.785 243.7 12.9 241 10.1
2009-06-22 07:34:58 51°13.422 2°51.513 249.3 8.6 247 10.3
2009-06-22 07:35:58 51°13.386 2°51.386 263.5 3.2 249 10.4
2009-06-22 07:36:58 51°13.373 2°51.343 290.5 1.6 236 10.3
2009-06-22 07:37:58 51°13.361 2°51.31 287.9 1.5 238 10.5
2009-06-22 07:38:58 51°13.349 2°51.275 287.5 1.8 246 10.4
2009-06-22 07:39:58 51°13.318 2°51.174 240.8 6.9 238 10.5
2009-06-22 07:40:58 51°13.234 2°50.94 243 12.2 242 10.4
2009-06-22 07:41:58 51°13.13 2°50.65 242.9 12.7 240 10.6
2009-06-22 07:42:58 51°13.025 2°50.358 242 12.7 239 10.7
2009-06-22 07:43:58 51°12.916 2°50.067 241 12.8 239 10.8
2009-06-22 07:44:58 51°12.81 2°49.773 241.9 12.9 241 10.9
2009-06-22 07:45:59 51°12.703 2°49.472 242.2 12.8 241 11
2009-06-22 07:46:58 51°12.602 2°49.178 243.6 12.9 242 11.1
2009-06-22 07:47:58 51°12.501 2°48.878 244.1 12.8 242 11.1
2009-06-22 07:48:58 51°12.397 2°48.579 242 12.9 241 11.3
2009-06-22 07:49:58 51°12.294 2°48.284 241.2 12.7 241 11.5
2009-06-22 07:50:58 51°12.188 2°47.992 241.2 12.7 240 11.4
2009-06-22 07:51:58 51°12.084 2°47.7 241.7 12.7 240 11.3
2009-06-22 07:52:58 51°11.982 2°47.405 242.3 12.8 241 11.3
2009-06-22 07:53:58 51°11.884 2°47.105 243.8 12.8 243 11.2
2009-06-22 07:54:59 51°11.789 2°46.798 245.3 12.6 243 11.4
2009-06-22 07:55:58 51°11.716 2°46.49 252.7 12.7 251 11.5
2009-06-22 07:56:59 51°11.647 2°46.165 252.5 12.8 252 11.7
2009-06-22 07:57:57 51°11.582 2°45.853 252.7 12.8 251 11.9
2009-06-22 07:58:58 51°11.512 2°45.524 252.5 12.9 252 11.9
2009-06-22 07:59:58 51°11.443 2°45.201 251.9 12.9 250 11.9
2009-06-22 08:00:58 51°11.371 2°44.879 252.7 13 252 11.9
2009-06-22 08:01:58 51°11.304 2°44.552 253.4 12.9 252 12
2009-06-22 08:02:58 51°11.234 2°44.225 252.5 13 251 11.9
2009-06-22 08:03:58 51°11.172 2°43.897 255.4 12.9 254 11.8
2009-06-22 08:04:58 51°11.143 2°43.56 269.2 12.9 265 12
2009-06-22 08:05:58 51°11.128 2°43.222 267.8 12.2 265 12.3
2009-06-22 08:06:58 51°11.113 2°42.912 269.3 11.7 265 12.3
2009-06-22 08:07:58 51°11.096 2°42.604 267.5 11.7 265 12.1
2009-06-22 08:08:58 51°11.077 2°42.336 266 8 263 12.3
2009-06-22 08:09:58 51°11.058 2°42.174 257.6 5.1 255 12.3
2009-06-22 08:10:59 51°11.036 2°42.08 231.3 2.2 246 12.3
2009-06-22 08:11:58 51°11.023 2°42.037 214.1 1.7 242 12.2
2009-06-22 08:12:58 51°11.01 2°41.997 211.4 1.7 239 12.4
2009-06-22 08:13:58 51°10.996 2°41.957 214.1 1.7 241 12.4
2009-06-22 08:14:58 51°10.982 2°41.916 216.6 1.8 241 12.3
2009-06-22 08:15:58 51°10.967 2°41.873 222.1 1.9 243 12.3
2009-06-22 08:16:58 51°10.952 2°41.831 229.6 1.9 244 12.4
2009-06-22 08:17:59 51°10.929 2°41.752 245.4 4.8 246 12.4
2009-06-22 08:18:58 51°10.877 2°41.565 246 10.1 247 12.2
2009-06-22 08:19:59 51°10.808 2°41.262 252.9 12.7 253 12.1
2009-06-22 08:20:58 51°10.748 2°40.94 254.1 12.9 254 12.3
2009-06-22 08:21:59 51°10.686 2°40.606 254.5 12.9 253 12.7
2009-06-22 08:22:58 51°10.625 2°40.283 254.3 13 255 13.2
2009-06-22 08:23:58 51°10.569 2°39.95 256.1 13 255 13.8
2009-06-22 08:24:58 51°10.512 2°39.617 255.6 12.9 255 14.4
2009-06-22 08:25:58 51°10.452 2°39.289 253.1 12.8 253 14.8
2009-06-22 08:26:59 51°10.387 2°38.96 255 12.9 254 15.4
2009-06-22 08:27:58 51°10.323 2°38.641 253.7 12.9 252 16.1
2009-06-22 08:28:59 51°10.258 2°38.308 253.6 12.9 253 16
2009-06-22 08:29:58 51°10.194 2°37.987 253.2 13 252 16.6
2009-06-22 08:30:59 51°10.136 2°37.654 258.3 12.9 257 17
2009-06-22 08:31:58 51°10.1 2°37.324 267.6 12.7 265 17.5
2009-06-22 08:32:58 51°10.097 2°36.991 279.1 12.4 277 17.9
2009-06-22 08:33:59 51°10.161 2°36.683 299.4 11.9 295 17.8
2009-06-22 08:34:58 51°10.254 2°36.417 309.9 11.5 306 14.6
2009-06-22 08:35:59 51°10.399 2°36.232 338.3 10.7 335 10
2009-06-22 08:36:58 51°10.566 2°36.228 18.4 10.3 17 10.6
2009-06-22 08:37:59 51°10.727 2°36.346 27.8 10.4 26 11.4
2009-06-22 08:38:58 51°10.884 2°36.453 25.5 10.5 22 12
2009-06-22 08:39:58 51°11.047 2°36.556 24.2 10.6 21 12.3
2009-06-22 08:40:58 51°11.216 2°36.64 18.8 10.6 15 12.6
2009-06-22 08:41:58 51°11.385 2°36.718 21.1 10.5 18 12.3
2009-06-22 08:42:59 51°11.555 2°36.806 22.1 10.7 19 12
2009-06-22 08:43:58 51°11.721 2°36.893 21.6 10.6 19 11.7
2009-06-22 08:44:59 51°11.892 2°36.98 21.5 10.6 18 11.3
2009-06-22 08:45:58 51°12.058 2°37.064 19.5 10.7 17 11
2009-06-22 08:46:59 51°12.23 2°37.158 21.3 10.7 18 11.1
2009-06-22 08:47:58 51°12.396 2°37.242 20 10.4 17 11.4
2009-06-22 08:48:58 51°12.541 2°37.313 21.4 8.6 19 11.6
2009-06-22 08:49:58 51°12.675 2°37.381 20.7 8.3 18 11.8
2009-06-22 08:50:58 51°12.802 2°37.431 9.8 7.2 5 11.9
2009-06-22 08:51:59 51°12.927 2°37.426 1.1 7.7 357 11.5
2009-06-22 08:52:58 51°13.057 2°37.418 1.1 7.9 358 10.8
2009-06-22 08:53:59 51°13.179 2°37.414 0.2 6.7 357 10.4
2009-06-22 08:54:58 51°13.285 2°37.409 0.3 6.2 357 9.9
2009-06-22 08:55:59 51°13.381 2°37.385 352.6 5.6 347 9.5
2009-06-22 08:56:58 51°13.482 2°37.347 351.2 7.7 347 9.4
2009-06-22 08:57:58 51°13.64 2°37.295 355 10.8 352 16.1
2009-06-22 08:58:59 51°13.826 2°37.254 357.2 11.1 352 19.9
2009-06-22 08:59:58 51°14.006 2°37.217 357.3 11.1 353 19.7
2009-06-22 09:00:59 51°14.19 2°37.172 356.8 11 354 14.9
2009-06-22 09:01:58 51°14.367 2°37.136 357.9 10.9 355 12.3
2009-06-22 09:02:59 51°14.551 2°37.107 357.9 10.8 359 11.2
2009-06-22 09:03:58 51°14.73 2°37.078 358.5 11.1 355 11.1
2009-06-22 09:04:59 51°14.917 2°37.046 357.5 11.2 355 11.5
2009-06-22 09:05:59 51°15.102 2°37.013 356.9 11.2 354 12.8
2009-06-22 09:06:59 51°15.288 2°36.981 356.4 11.3 352 13.7
2009-06-22 09:07:59 51°15.474 2°36.942 356.5 11.3 353 12.7
2009-06-22 09:08:58 51°15.657 2°36.911 356.5 11.3 354 13.5
2009-06-22 09:09:59 51°15.849 2°36.877 357.9 11.4 354 17
2009-06-22 09:10:58 51°16.034 2°36.84 355.8 11.3 352 23.1
2009-06-22 09:11:59 51°16.189 2°36.806 359.3 6.2 353 27
2009-06-22 09:12:58 51°16.263 2°36.796 6.7 4 357 27.8
2009-06-22 09:13:59 51°16.329 2°36.785 4.3 3.8 355 28.3
2009-06-22 09:14:59 51°16.392 2°36.806 22.2 4.2 14 27.7
2009-06-22 09:15:59 51°16.468 2°36.804 5.4 4.8 358 27.2
2009-06-22 09:16:59 51°16.544 2°36.815 16.9 3.6 10 27.3
2009-06-22 09:17:58 51°16.568 2°36.82 25.7 0.5 337 27.2
2009-06-22 09:18:59 51°16.57 2°36.813 30.5 0.3 247 27.3
2009-06-22 09:19:58 51°16.566 2°36.804 36 0.4 235 27.1
2009-06-22 09:20:59 51°16.559 2°36.795 44.4 0.6 220 27.4
2009-06-22 09:21:58 51°16.551 2°36.786 54.7 0.7 217 27.4
2009-06-22 09:22:59 51°16.541 2°36.775 66.1 0.8 217 27.3
2009-06-22 09:23:59 51°16.533 2°36.769 78.6 0.7 115 27.4
2009-06-22 09:24:58 51°16.556 2°36.81 23.9 3.4 15 27.4
2009-06-22 09:25:59 51°16.636 2°36.745 333.2 7.9 327 26.9
2009-06-22 09:26:58 51°16.781 2°36.626 337.4 11.2 334 27.7
2009-06-22 09:27:58 51°16.937 2°36.452 325.7 11.6 320 28.5
2009-06-22 09:28:58 51°17.08 2°36.245 322.1 11.6 316 26.2
2009-06-22 09:29:58 51°17.215 2°36.033 319.5 11.3 315 21.7
2009-06-22 09:30:59 51°17.341 2°35.81 313.9 11 311 15.3
2009-06-22 09:31:59 51°17.446 2°35.573 307.1 11 303 13.3
2009-06-22 09:32:59 51°17.548 2°35.334 308 10.9 305 14.2
2009-06-22 09:33:58 51°17.654 2°35.102 309.7 11 307 15
2009-06-22 09:34:59 51°17.765 2°34.858 309.3 11.3 307 15.5
2009-06-22 09:35:58 51°17.877 2°34.622 308.6 11.4 306 26.6
2009-06-22 09:36:59 51°17.993 2°34.373 308.9 11.5 307 28.8
2009-06-22 09:37:59 51°18.108 2°34.128 308.3 11.4 306 26.4
2009-06-22 09:38:59 51°18.22 2°33.883 309.3 11.4 307 26.4
2009-06-22 09:39:59 51°18.334 2°33.643 310.2 11.3 308 20.5
2009-06-22 09:40:59 51°18.445 2°33.403 308.6 11.3 307 19.7
2009-06-22 09:41:59 51°18.558 2°33.165 309.6 11.3 307 25
2009-06-22 09:42:58 51°18.668 2°32.925 310.3 11.5 308 28.1
2009-06-22 09:43:59 51°18.782 2°32.674 308.6 11.5 306 30.6
2009-06-22 09:44:58 51°18.894 2°32.43 308.9 11.6 306 31.8
2009-06-22 09:45:59 51°19.011 2°32.18 309.6 11.6 306 32
2009-06-22 09:46:58 51°19.12 2°31.933 308.5 11.5 305 31.7
2009-06-22 09:47:59 51°19.234 2°31.683 309.3 11.4 306 32
2009-06-22 09:48:59 51°19.347 2°31.436 310.7 11.6 308 31.7
2009-06-22 09:49:59 51°19.463 2°31.188 309.5 11.7 308 31
2009-06-22 09:50:59 51°19.579 2°30.94 309.9 11.7 308 26.6
2009-06-22 09:51:59 51°19.697 2°30.705 310 10.4 311 21.3
2009-06-22 09:52:59 51°19.79 2°30.536 309.3 7.9 313 17.2
2009-06-22 09:53:59 51°19.874 2°30.39 308.1 7.3 311 16.9
2009-06-22 09:54:59 51°19.943 2°30.276 309.9 4.6 316 15.6
2009-06-22 09:55:59 51°19.972 2°30.198 274.7 2.7 277 13.4
2009-06-22 09:56:58 51°19.981 2°30.134 287.9 2.4 299 15.6
2009-06-22 09:57:59 51°19.992 2°30.085 274.3 0.9 280 14.9
2009-06-22 09:58:59 51°19.996 2°30.096 295.9 0.9 78 15.7
2009-06-22 09:59:59 51°19.997 2°30.12 307.7 1 86 15.3
2009-06-22 10:00:59 51°19.997 2°30.148 313.2 1.2 90 14.7
2009-06-22 10:01:59 51°19.997 2°30.182 313.9 1.3 90 14.4
2009-06-22 10:02:59 51°19.996 2°30.215 317.7 1.3 92 13.8
2009-06-22 10:03:59 51°19.996 2°30.245 321.4 0.9 60 15.4
2009-06-22 10:04:59 51°20.021 2°30.264 357.1 2.6 30 14.6
2009-06-22 10:05:59 51°20.064 2°30.332 37.8 5 50 14.4
2009-06-22 10:06:59 51°20.143 2°30.507 55.2 10.3 59 13.6
2009-06-22 10:07:59 51°20.217 2°30.802 77.7 12.6 79 17
2009-06-22 10:08:59 51°20.248 2°31.135 84 12.8 84 21.7
2009-06-22 10:09:59 51°20.28 2°31.469 81.6 12.7 81 25.2
2009-06-22 10:10:59 51°20.313 2°31.798 81.4 12.7 80 31.4
2009-06-22 10:11:59 51°20.35 2°32.13 81.3 12.7 82 31.8
2009-06-22 10:12:59 51°20.363 2°32.464 91.3 12.6 90 32.6
2009-06-22 10:13:59 51°20.365 2°32.799 91.5 12.6 90 32.3
2009-06-22 10:14:59 51°20.37 2°33.134 90.4 12.6 88 33.2
2009-06-22 10:15:59 51°20.378 2°33.47 90.1 12.7 88 33.1
2009-06-22 10:16:59 51°20.388 2°33.808 88.8 12.7 87 32.6
2009-06-22 10:17:59 51°20.397 2°34.145 90.2 12.6 88 32.6
2009-06-22 10:18:59 51°20.409 2°34.476 89.7 12.4 87 32.9
2009-06-22 10:19:59 51°20.419 2°34.808 89.8 12.6 88 32.7
2009-06-22 10:20:59 51°20.433 2°35.144 89 12.7 85 27.1
2009-06-22 10:21:59 51°20.444 2°35.484 89.4 12.9 87 25.8
2009-06-22 10:22:59 51°20.454 2°35.826 88.4 12.9 87 21.9
2009-06-22 10:23:59 51°20.482 2°36.165 82 12.9 81 21.7
2009-06-22 10:24:59 51°20.521 2°36.5 81.2 12.7 80 23.1
2009-06-22 10:25:59 51°20.555 2°36.832 82.3 12.7 81 24
2009-06-22 10:26:59 51°20.578 2°37.166 85.9 12.6 84 25.6
2009-06-22 10:27:59 51°20.594 2°37.499 87.9 12.5 85 24.3
2009-06-22 10:28:59 51°20.608 2°37.832 87.7 12.6 87 25.7
2009-06-22 10:29:59 51°20.646 2°38.159 78.6 12.5 76 25.3
2009-06-22 10:30:59 51°20.698 2°38.482 77 12.6 75 26
2009-06-22 10:31:59 51°20.753 2°38.804 76.5 12.5 74 26.7
2009-06-22 10:32:59 51°20.807 2°39.126 78.2 12.6 75 26.8
2009-06-22 10:33:59 51°20.86 2°39.449 77.1 12.6 74 26.9
2009-06-22 10:34:59 51°20.925 2°39.768 73.8 12.7 70 27.8
2009-06-22 10:35:59 51°21.014 2°40.073 63.5 12.7 60 28.7
2009-06-22 10:36:59 51°21.118 2°40.368 62.9 12.8 60 28.7
2009-06-22 10:37:59 51°21.222 2°40.667 62.6 12.8 60 28.7
2009-06-22 10:38:59 51°21.335 2°40.956 59.5 12.8 58 28.1
2009-06-22 10:39:59 51°21.449 2°41.245 59.1 12.9 57 28.7
2009-06-22 10:40:59 51°21.576 2°41.521 54.7 12.9 52 28.3
2009-06-22 10:41:59 51°21.704 2°41.798 56.7 13 54 27.2
2009-06-22 10:42:59 51°21.829 2°42.08 56.6 13.1 55 27.6
2009-06-22 10:43:59 51°21.955 2°42.363 55.5 13 54 28.7
2009-06-22 10:44:59 51°22.08 2°42.647 56.6 13.1 55 27.8
2009-06-22 10:45:59 51°22.231 2°42.897 42 13.1 41 28.3
2009-06-22 10:46:59 51°22.394 2°43.126 41.3 13.1 41 27.7
2009-06-22 10:47:59 51°22.561 2°43.353 40.2 13 41 27.6
2009-06-22 10:48:59 51°22.727 2°43.575 41.3 13 40 27.8
2009-06-22 10:49:59 51°22.89 2°43.798 41.9 12.8 42 28.1
2009-06-22 10:50:59 51°23.055 2°44.017 41.9 12.9 40 27
2009-06-22 10:51:59 51°23.218 2°44.242 43.6 13 40 28.1
2009-06-22 10:52:59 51°23.383 2°44.461 41.8 12.9 39 29.4
2009-06-22 10:53:59 51°23.55 2°44.682 42.8 12.9 40 29.6
2009-06-22 10:54:59 51°23.718 2°44.899 42.1 13 39 29.6
2009-06-22 10:55:59 51°23.887 2°45.116 41.5 13 39 28.9
2009-06-22 10:56:59 51°24.053 2°45.339 43 13.1 40 29.1
2009-06-22 10:57:59 51°24.217 2°45.564 43 13 39 28.8
2009-06-22 10:58:59 51°24.385 2°45.781 42.9 12.9 41 28.5
2009-06-22 10:59:59 51°24.551 2°46 41.4 13 39 27.5
2009-06-22 11:00:59 51°24.717 2°46.224 42.2 13.1 40 27.3
2009-06-22 11:01:59 51°24.879 2°46.458 42.4 13.1 43 27.2
2009-06-22 11:02:59 51°25.039 2°46.689 42.5 12.9 42 27.3
2009-06-22 11:03:59 51°25.2 2°46.918 42.9 12.9 42 27.2
2009-06-22 11:04:59 51°25.362 2°47.14 41.9 12.8 41 27.2
2009-06-22 11:05:59 51°25.521 2°47.366 42.9 12.8 42 27.3
2009-06-22 11:06:59 51°25.68 2°47.592 43.3 12.8 41 26.8
2009-06-22 11:07:59 51°25.851 2°47.797 39.1 12.9 38 25.6
2009-06-22 11:08:59 51°25.98 2°48.034 61.2 9.8 60 23.9
2009-06-22 11:09:59 51°26.007 2°48.248 100.1 7.1 94 25.7
2009-06-22 11:10:59 51°25.99 2°48.401 114.1 5.3 100 26
2009-06-22 11:11:59 51°25.994 2°48.518 88.7 3.5 79 25.9
2009-06-22 11:12:59 51°26.004 2°48.569 80.6 1.5 68 26.1
2009-06-22 11:13:59 51°26.013 2°48.605 85.1 1.4 69 26.3
2009-06-22 11:14:59 51°26.022 2°48.638 91.9 1.3 67 26.4
2009-06-22 11:15:58 51°26.029 2°48.668 102.7 1.2 72 25.9
2009-06-22 11:16:59 51°26.036 2°48.696 116.1 1 71 26.3
2009-06-22 11:17:59 51°26.043 2°48.723 128.3 1.1 67 25.9
2009-06-22 11:18:59 51°26.049 2°48.748 137.8 1 72 26
2009-06-22 11:19:59 51°26.051 2°48.786 125.7 2 93 25.8
2009-06-22 11:20:59 51°26.052 2°48.875 95.9 4.8 86 25.8
2009-06-22 11:21:59 51°26.068 2°49.032 86.5 7.4 80 26
2009-06-22 11:22:59 51°26.09 2°49.28 87.1 10.6 83 25.8
2009-06-22 11:23:59 51°26.113 2°49.572 88.8 11.2 84 25.6
2009-06-22 11:24:59 51°26.137 2°49.874 88.1 12.1 81 25.6
2009-06-22 11:25:59 51°26.173 2°50.205 84.2 12.8 80 25.8
2009-06-22 11:26:59 51°26.215 2°50.542 84.2 12.9 80 25.7
2009-06-22 11:27:59 51°26.258 2°50.88 84.2 12.8 78 26
2009-06-22 11:28:59 51°26.306 2°51.212 84.7 12.8 79 26.9
2009-06-22 11:29:59 51°26.352 2°51.542 84 12.7 76 29.1
2009-06-22 11:30:59 51°26.395 2°51.87 83.6 12.6 78 28.8
2009-06-22 11:31:59 51°26.44 2°52.199 83.3 12.6 77 29
2009-06-22 11:32:59 51°26.484 2°52.527 84.9 12.6 79 30.2
2009-06-22 11:33:59 51°26.526 2°52.859 83.8 12.8 79 29.8
2009-06-22 11:34:59 51°26.569 2°53.191 83.7 12.7 78 32.7
2009-06-22 11:35:59 51°26.61 2°53.519 85 12.4 79 33.7
2009-06-22 11:36:59 51°26.653 2°53.841 84.3 12.4 75 33.8
2009-06-22 11:37:59 51°26.695 2°54.164 84.5 12.5 77 33.9
2009-06-22 11:38:59 51°26.742 2°54.492 83.3 12.9 77 25.1
2009-06-22 11:39:59 51°26.783 2°54.828 85 12.7 80 28.8
2009-06-22 11:40:59 51°26.828 2°55.162 84.1 12.7 80 28.7
2009-06-22 11:41:59 51°26.854 2°55.494 91.7 12.5 85 29.8
2009-06-22 11:42:59 51°26.872 2°55.823 91.9 12.4 85 30
2009-06-22 11:43:59 51°26.892 2°56.15 90.5 12.3 85 28.4
2009-06-22 11:44:59 51°26.909 2°56.481 90.8 12.5 86 25.7
2009-06-22 11:45:59 51°26.928 2°56.816 89.4 12.7 85 22.8
2009-06-22 11:46:59 51°26.947 2°57.153 90.4 12.7 84 24
2009-06-22 11:47:59 51°26.963 2°57.489 90.6 12.6 86 20.8
2009-06-22 11:48:59 51°26.981 2°57.825 89.3 12.6 84 20.1
2009-06-22 11:49:59 51°26.999 2°58.159 90.1 12.6 86 18
2009-06-22 11:50:59 51°27.033 2°58.492 80.7 12.7 76 18.8
2009-06-22 11:51:59 51°27.086 2°58.82 79.5 12.7 76 20.4
2009-06-22 11:52:59 51°27.147 2°59.143 71.8 12.7 68 20
2009-06-22 11:53:59 51°27.238 2°59.451 66.8 12.7 64 21.8
2009-06-22 11:54:59 51°27.331 2°59.753 71 12.7 68 23.4
2009-06-22 11:55:59 51°27.412 3°0.065 72.7 12.7 67 23.7
2009-06-22 11:56:59 51°27.495 3°0.379 73.1 12.8 68 25.4
2009-06-22 11:57:59 51°27.575 3°0.697 73.7 12.9 67 25.7
2009-06-22 11:58:59 51°27.659 3°1.016 74.1 13.1 67 25.4
2009-06-22 11:59:59 51°27.743 3°1.339 73.6 13.2 68 24.5
2009-06-22 12:00:59 51°27.822 3°1.667 74.3 13.1 70 24.4
2009-06-22 12:01:59 51°27.903 3°1.994 72.9 13.2 69 25.4
2009-06-22 12:02:59 51°27.986 3°2.319 72.7 13.2 69 25.7
2009-06-22 12:03:59 51°28.061 3°2.648 74.8 13.1 70 25.2
2009-06-22 12:04:59 51°28.132 3°2.937 69.8 9 66 25
2009-06-22 12:05:59 51°28.18 3°3.118 74.2 6.6 69 24.9
2009-06-22 12:06:59 51°28.218 3°3.269 72.9 5.8 69 24.8
2009-06-22 12:07:59 51°28.253 3°3.407 72.9 5.3 68 24.4
2009-06-22 12:08:59 51°28.282 3°3.495 53.1 2.3 58 24.5
2009-06-22 12:09:59 51°28.299 3°3.539 46 1.7 61 24.4
2009-06-22 12:10:59 51°28.312 3°3.575 52.9 1.5 58 24.3
2009-06-22 12:11:59 51°28.323 3°3.609 66.5 1.3 62 24.3
2009-06-22 12:12:59 51°28.333 3°3.641 84.9 1.2 66 24.6
2009-06-22 12:13:59 51°28.342 3°3.679 104.2 2.1 81 24.3
2009-06-22 12:14:59 51°28.328 3°3.768 136.5 5.8 119 24
2009-06-22 12:15:59 51°28.254 3°3.971 129.3 10.7 122 22.9
2009-06-22 12:16:59 51°28.149 3°4.237 128.8 12 124 21.2
2009-06-22 12:17:59 51°28.04 3°4.509 128.6 12 123 18.8
2009-06-22 12:18:59 51°27.933 3°4.783 129.3 12.2 119 17
2009-06-22 12:19:59 51°27.823 3°5.053 130.4 12.2 122 15.6
2009-06-22 12:20:59 51°27.713 3°5.325 129.1 12.2 120 16.3
2009-06-22 12:21:59 51°27.603 3°5.589 129.8 12 127 17
2009-06-22 12:22:59 51°27.486 3°5.847 132.6 12 127 16.3
2009-06-22 12:23:59 51°27.375 3°6.112 129.2 12 123 16
2009-06-22 12:24:58 51°27.269 3°6.376 128.3 11.9 124 15.7
2009-06-22 12:25:59 51°27.16 3°6.646 130.4 11.9 124 15.2
2009-06-22 12:26:59 51°27.044 3°6.901 131.5 11.8 127 14.7
2009-06-22 12:27:59 51°26.928 3°7.153 130.7 11.7 128 14.1
2009-06-22 12:28:59 51°26.817 3°7.414 130.8 11.9 124 13.6
2009-06-22 12:29:59 51°26.705 3°7.674 130.6 12.2 123 13.1
2009-06-22 12:30:59 51°26.607 3°7.915 130.1 9.9 123 12.4
2009-06-22 12:31:59 51°26.533 3°8.111 128.3 6.8 114 11.8
2009-06-22 12:32:59 51°26.498 3°8.235 129.3 4.2 113 12.6
2009-06-22 12:33:58 51°26.469 3°8.312 150.8 2.9 130 12.6
2009-06-22 12:34:59 51°26.456 3°8.361 139.3 1.8 103 12.6
2009-06-22 12:35:59 51°26.454 3°8.403 124.2 1.6 85 12.7
2009-06-22 12:36:59 51°26.459 3°8.439 112.7 1.2 82 13
2009-06-22 12:37:59 51°26.467 3°8.471 104.8 1.2 66 12.8
2009-06-22 12:38:59 51°26.474 3°8.504 100.6 2.3 80 12.8
2009-06-22 12:39:59 51°26.447 3°8.633 136.3 7.1 128 12.7
2009-06-22 12:40:59 51°26.339 3°8.825 136 11.3 128 12.3
2009-06-22 12:41:59 51°26.225 3°9.075 129.5 11.8 125 11.8
2009-06-22 12:42:59 51°26.122 3°9.338 126 11.4 125 11.2
2009-06-22 12:43:59 51°26.031 3°9.612 122.7 11.8 114 10.8
2009-06-22 12:44:59 51°25.948 3°9.888 121.6 11.5 117 10.2
2009-06-22 12:45:59 51°25.859 3°10.163 121.8 11.7 117 10.1
2009-06-22 12:46:59 51°25.771 3°10.438 121.2 11.6 119 9.9
2009-06-22 12:47:59 51°25.682 3°10.709 124 11.5 119 9.8
2009-06-22 12:48:59 51°25.581 3°10.97 126.3 11.6 120 10.4
2009-06-22 12:49:59 51°25.471 3°11.223 132.9 11.7 128 11.2
2009-06-22 12:50:59 51°25.332 3°11.435 145.3 11.6 142 11.9
2009-06-22 12:51:59 51°25.176 3°11.619 150.6 11.8 147 12.3
2009-06-22 12:52:59 51°25.009 3°11.772 160.5 11.7 153 13
2009-06-22 12:53:59 51°24.832 3°11.9 163.9 11.8 156 14.2
2009-06-22 12:54:59 51°24.655 3°12.028 161.9 11.7 154 16.2
2009-06-22 12:55:59 51°24.48 3°12.165 161.9 11.7 155 19
2009-06-22 12:56:59 51°24.304 3°12.296 164.4 11.6 158 20.3
2009-06-22 12:57:59 51°24.126 3°12.421 164.8 11.8 156 18
2009-06-22 12:58:59 51°23.947 3°12.537 163.9 11.6 159 14.6
2009-06-22 12:59:59 51°23.769 3°12.659 163.1 11.6 156 13.7
2009-06-22 13:00:59 51°23.588 3°12.765 166.7 11.5 160 13.3
2009-06-22 13:01:59 51°23.407 3°12.867 167.1 11.4 160 13
2009-06-22 13:02:59 51°23.231 3°12.963 168 10.9 161 13.6
2009-06-22 13:03:59 51°23.073 3°13.056 168.6 9.5 159 13.4
2009-06-22 13:04:59 51°22.927 3°13.121 177.9 8.9 169 13.4
2009-06-22 13:05:59 51°22.782 3°13.163 178.9 8.9 170 13.6
2009-06-22 13:06:59 51°22.676 3°13.203 178.2 4.7 163 14
2009-06-22 13:07:59 51°22.625 3°13.234 185.9 1.8 145 14
2009-06-22 13:08:59 51°22.613 3°13.266 167 1.4 116 14
2009-06-22 13:09:59 51°22.603 3°13.302 152.1 1.5 111 14
2009-06-22 13:10:59 51°22.596 3°13.339 136.1 1.4 103 13.9
2009-06-22 13:11:59 51°22.592 3°13.374 122 1.3 97 13.8
2009-06-22 13:12:59 51°22.59 3°13.407 111.9 1.2 97 13.7
2009-06-22 13:13:59 51°22.578 3°13.461 133.1 3.7 122 13.6
2009-06-22 13:14:59 51°22.523 3°13.479 220.5 3.6 215 13.6
2009-06-22 13:15:59 51°22.518 3°13.332 273.2 8.6 275 13.9
2009-06-22 13:16:59 51°22.532 3°13.063 277.7 10.6 278 14.4
2009-06-22 13:17:59 51°22.546 3°12.78 271.7 10.7 271 15.2
2009-06-22 13:18:59 51°22.547 3°12.494 269.2 10.7 270 15.8
2009-06-22 13:19:59 51°22.549 3°12.209 270.4 10.7 272 16.1
2009-06-22 13:20:59 51°22.538 3°11.926 260.2 10.6 260 16.8
2009-06-22 13:21:59 51°22.503 3°11.649 256.9 10.6 258 17.2
2009-06-22 13:22:59 51°22.471 3°11.373 260.6 10.6 261 17.4
2009-06-22 13:23:59 51°22.441 3°11.096 258.5 10.5 258 17.5
2009-06-22 13:24:59 51°22.413 3°10.816 258.5 10.6 259 18
2009-06-22 13:25:59 51°22.381 3°10.535 257.7 10.8 258 20.7
2009-06-22 13:26:59 51°22.349 3°10.252 260.2 10.8 260 16.6
2009-06-22 13:27:59 51°22.319 3°9.969 258.2 10.7 261 15.7
2009-06-22 13:28:59 51°22.285 3°9.688 256.8 10.7 257 15.4
2009-06-22 13:29:59 51°22.251 3°9.408 258.3 10.8 260 15
2009-06-22 13:30:59 51°22.217 3°9.126 259.1 10.8 262 14.6
2009-06-22 13:31:59 51°22.18 3°8.844 257.1 10.8 258 14.1
2009-06-22 13:32:59 51°22.146 3°8.559 258.4 10.9 260 14
2009-06-22 13:33:59 51°22.115 3°8.274 259.2 10.8 261 13.9
2009-06-22 13:34:59 51°22.084 3°7.989 258.7 10.9 261 13.9
2009-06-22 13:35:59 51°22.052 3°7.706 257.4 10.8 258 13.9
2009-06-22 13:36:59 51°22.018 3°7.423 257.5 10.8 259 13.6
2009-06-22 13:37:59 51°21.986 3°7.139 258.3 10.8 260 13.6
2009-06-22 13:38:59 51°21.935 3°6.867 251.6 10.8 252 13.4
2009-06-22 13:39:59 51°21.875 3°6.598 251.2 10.8 251 13.4
2009-06-22 13:40:59 51°21.817 3°6.326 251.4 10.9 252 13.2
2009-06-22 13:41:59 51°21.759 3°6.056 250.1 10.8 250 12.8
2009-06-22 13:42:59 51°21.7 3°5.785 250.9 10.7 251 12.7
2009-06-22 13:43:59 51°21.643 3°5.513 251.9 10.9 249 12.8
2009-06-22 13:44:59 51°21.587 3°5.239 252.6 10.9 254 12.8
2009-06-22 13:45:59 51°21.534 3°4.963 252.2 10.9 254 12.7
2009-06-22 13:46:59 51°21.478 3°4.69 252.7 10.9 255 12.7
2009-06-22 13:47:59 51°21.421 3°4.417 250.4 10.8 251 12.6
2009-06-22 13:48:59 51°21.363 3°4.146 250.6 10.8 251 12.6
2009-06-22 13:49:59 51°21.307 3°3.873 251.3 10.9 252 12.4
2009-06-22 13:50:59 51°21.249 3°3.602 250.5 10.8 249 12.3
2009-06-22 13:51:59 51°21.19 3°3.33 250.9 10.9 250 12.2
2009-06-22 13:52:59 51°21.132 3°3.059 251.2 10.9 253 12.1
2009-06-22 13:53:59 51°21.077 3°2.784 250.8 10.8 252 11.9
2009-06-22 13:54:59 51°21.018 3°2.511 250.6 10.9 252 12.1
2009-06-22 13:55:59 51°20.965 3°2.231 252.1 11 254 11.9
2009-06-22 13:56:59 51°20.91 3°1.952 251.9 11.1 254 11.9
2009-06-22 13:57:59 51°20.854 3°1.673 250.5 11 253 12
2009-06-22 13:58:59 51°20.795 3°1.395 251 11 252 11.9
2009-06-22 13:59:59 51°20.738 3°1.114 251.8 11.2 254 11.9
2009-06-22 14:00:59 51°20.685 3°0.831 253.4 11.1 256 12
2009-06-22 14:01:59 51°20.63 3°0.553 250.2 11 253 12.1
2009-06-22 14:02:59 51°20.573 3°0.277 251.2 10.9 249 12.2
2009-06-22 14:03:59 51°20.519 3°0 250.9 10.9 254 12
2009-06-22 14:04:59 51°20.461 2°59.724 251.7 11 250 12
2009-06-22 14:05:59 51°20.407 2°59.444 251.9 11.1 253 12
2009-06-22 14:06:59 51°20.349 2°59.164 251.4 11.1 252 12
2009-06-22 14:07:59 51°20.288 2°58.885 250.6 11.3 251 12.2
2009-06-22 14:08:59 51°20.23 2°58.602 250.5 11.2 250 12.2
2009-06-22 14:09:59 51°20.172 2°58.319 251 11.2 254 12.2
2009-06-22 14:10:59 51°20.115 2°58.036 251.8 11.2 255 12.4
2009-06-22 14:11:59 51°20.056 2°57.753 251.1 11.3 251 12.6
2009-06-22 14:12:59 51°19.997 2°57.468 251.5 11.3 253 12.5
2009-06-22 14:13:59 51°19.942 2°57.178 251.4 11.4 255 12.6
2009-06-22 14:14:59 51°19.884 2°56.892 251.3 11.3 252 12.8
2009-06-22 14:15:59 51°19.828 2°56.604 250.7 11.4 252 12.9
2009-06-22 14:16:59 51°19.769 2°56.316 252.5 11.4 252 13
2009-06-22 14:17:59 51°19.71 2°56.028 250.5 11.4 253 13
2009-06-22 14:18:59 51°19.649 2°55.743 250 11.4 249 13.1
2009-06-22 14:19:59 51°19.587 2°55.46 250.7 11.3 250 13.1
2009-06-22 14:20:59 51°19.524 2°55.175 249.8 11.4 247 13.4
2009-06-22 14:21:59 51°19.466 2°54.887 251.4 11.4 254 13.2
2009-06-22 14:22:59 51°19.408 2°54.597 252.3 11.5 253 13.2
2009-06-22 14:23:59 51°19.352 2°54.306 253.3 11.4 254 13.3
2009-06-22 14:24:59 51°19.295 2°54.014 252.4 11.5 253 13.1
2009-06-22 14:25:59 51°19.238 2°53.721 252.4 11.6 253 13.2
2009-06-22 14:26:59 51°19.179 2°53.431 250.6 11.4 251 13.3
2009-06-22 14:27:59 51°19.117 2°53.145 250 11.5 253 13.5
2009-06-22 14:28:59 51°19.058 2°52.856 250.4 11.5 254 13.5
2009-06-22 14:29:59 51°18.99 2°52.572 245.8 11.4 245 13.8
2009-06-22 14:30:59 51°18.916 2°52.291 245.1 11.5 246 14.2
2009-06-22 14:31:59 51°18.838 2°52.015 244.2 11.4 242 14.4
2009-06-22 14:32:59 51°18.756 2°51.743 243.7 11.4 243 14.6
2009-06-22 14:33:59 51°18.688 2°51.527 243.1 7.2 246 14.8
2009-06-22 14:34:59 51°18.646 2°51.384 241.6 4.7 243 14.9
2009-06-22 14:35:59 51°18.616 2°51.284 242 3.8 243 15
2009-06-22 14:36:59 51°18.58 2°51.203 224.4 4.2 227 14.9
2009-06-22 14:37:59 51°18.539 2°51.104 238.9 4.7 237 15
2009-06-22 14:38:59 51°18.494 2°51.031 214.2 2.2 216 14.9
2009-06-22 14:39:59 51°18.485 2°51.019 193.1 0.4 224 14.7
2009-06-22 14:40:59 51°18.483 2°51.016 173.7 0.2 307 14.8
2009-06-22 14:41:59 51°18.488 2°51.011 160.8 0.4 325 14.6
2009-06-22 14:42:59 51°18.492 2°51.004 156.9 0.4 309 14.7
2009-06-22 14:43:59 51°18.496 2°51 150.7 0.2 173 14.6
2009-06-22 14:44:59 51°18.467 2°51.031 143.5 3.5 140 14.6
2009-06-22 14:45:59 51°18.383 2°51.175 133.2 10.5 131 14.1
2009-06-22 14:46:59 51°18.257 2°51.395 134.3 11.3 134 13
2009-06-22 14:47:59 51°18.119 2°51.598 143.2 11.2 143 12
2009-06-22 14:48:59 51°17.963 2°51.76 149.6 11.3 151 11.3
2009-06-22 14:49:59 51°17.801 2°51.91 150.1 11.2 150 11
2009-06-22 14:50:59 51°17.638 2°52.06 149.6 11.3 148 11.5
2009-06-22 14:51:59 51°17.475 2°52.214 149.4 11.5 146 11.5
2009-06-22 14:52:59 51°17.311 2°52.362 150.8 11.5 151 11
2009-06-22 14:53:59 51°17.149 2°52.519 148.9 11.4 147 10.6
2009-06-22 14:54:59 51°17.009 2°52.719 132.5 11.3 129 10.7
2009-06-22 14:55:59 51°16.898 2°52.963 125.5 11.3 124 9.3
2009-06-22 14:56:59 51°16.788 2°53.211 128 11.5 128 11.6
2009-06-22 14:57:59 51°16.671 2°53.453 128.1 11.4 130 12
2009-06-22 14:58:59 51°16.556 2°53.697 127.5 11.5 124 12.2
2009-06-22 14:59:59 51°16.454 2°53.909 129.1 9 129 12.2
2009-06-22 15:00:59 51°16.373 2°54.076 128.6 6.1 124 11.9
2009-06-22 15:01:59 51°16.33 2°54.177 123.4 3.7 125 11.9
2009-06-22 15:02:59 51°16.297 2°54.239 132.9 2.7 131 11.8
2009-06-22 15:03:59 51°16.275 2°54.279 125.5 1.1 138 11.8
2009-06-22 15:04:59 51°16.269 2°54.282 120.3 0.3 207 11.7
2009-06-22 15:05:59 51°16.264 2°54.278 123.9 0.5 219 11.8
2009-06-22 15:06:59 51°16.259 2°54.272 134.2 0.4 222 11.7
2009-06-22 15:07:59 51°16.253 2°54.264 140.4 0.5 226 11.7
2009-06-22 15:08:59 51°16.245 2°54.258 147.9 1 177 11.7
2009-06-22 15:09:59 51°16.213 2°54.257 188.4 2.5 194 11.7
2009-06-22 15:10:59 51°16.104 2°54.22 190.1 10.3 189 11.7
2009-06-22 15:11:59 51°15.921 2°54.169 187 11.5 187 11.6
2009-06-22 15:12:59 51°15.73 2°54.161 178 11.7 180 11.1
2009-06-22 15:13:59 51°15.537 2°54.159 178.6 11.5 180 10.4
2009-06-22 15:14:59 51°15.344 2°54.159 178.5 11.4 182 9.9
2009-06-22 15:15:59 51°15.15 2°54.167 173.4 11.6 175 9.7
2009-06-22 15:16:59 51°14.964 2°54.212 165.3 11.3 165 9.1
2009-06-22 15:17:59 51°14.786 2°54.307 155.4 11.4 158 10.6
2009-06-22 15:18:59 51°14.628 2°54.462 140.8 11 142 10.5
2009-06-22 15:19:59 51°14.502 2°54.668 127.5 10.8 127 10.7
2009-06-22 15:20:59 51°14.402 2°54.908 119.7 11 125 10.4
2009-06-22 15:21:59 51°14.304 2°55.151 122.2 10.6 122 10.3
2009-06-22 15:22:59 51°14.196 2°55.348 139.7 9.7 142 10.7
2009-06-22 15:23:59 51°14.063 2°55.462 153.5 8.9 154 10.6
2009-06-22 15:24:59 51°13.935 2°55.551 156.9 7.7 156 11
2009-06-22 15:25:59 51°13.827 2°55.632 153.5 6.8 152 10.6
2009-06-22 15:26:59 51°13.744 2°55.736 134.4 5.7 133 11.4
2009-06-22 15:27:59 51°13.695 2°55.837 121.1 4.4 119 8.6
2009-06-22 15:28:59 51°13.67 2°55.926 108.3 2.6 108 7
2009-06-22 15:29:59 51°13.663 2°55.955 124.9 0.2 122 6.2